sensor_id;sensor_type;location;lat;lon;timestamp;temperature;humidity
25140;DHT22;39015;48.106;-1.682;2023-04-01T10:17:34;15.80;77.50
25140;DHT22;39015;48.106;-1.682;2023-04-01T10:20:12;15.80;77.60
25140;DHT22;39015;48.106;-1.682;2023-04-01T10:31:14;15.80;77.90
25140;DHT22;39015;48.106;-1.682;2023-04-01T10:33:54;15.80;78.20
25140;DHT22;39015;48.106;-1.682;2023-04-01T10:36:39;15.80;78.20
25140;DHT22;39015;48.106;-1.682;2023-04-01T10:39:19;15.80;78.30
25140;DHT22;39015;48.106;-1.682;2023-04-01T10:44:55;15.80;78.20
25140;DHT22;39015;48.106;-1.682;2023-04-01T10:55:50;15.90;78.10
25140;DHT22;39015;48.106;-1.682;2023-04-01T11:01:17;15.90;78.10
25140;DHT22;39015;48.106;-1.682;2023-04-01T11:06:57;16.00;78.00
25140;DHT22;39015;48.106;-1.682;2023-04-01T11:09:44;16.00;78.10
25140;DHT22;39015;48.106;-1.682;2023-04-01T11:15:17;16.10;78.10
25140;DHT22;39015;48.106;-1.682;2023-04-01T11:23:31;16.20;77.90
25140;DHT22;39015;48.106;-1.682;2023-04-01T11:26:02;16.20;77.90
25140;DHT22;39015;48.106;-1.682;2023-04-01T11:28:43;16.20;77.90
25140;DHT22;39015;48.106;-1.682;2023-04-01T11:31:28;16.30;77.90
25140;DHT22;39015;48.106;-1.682;2023-04-01T11:34:01;16.30;77.80
25140;DHT22;39015;48.106;-1.682;2023-04-01T11:36:32;16.30;77.80
25140;DHT22;39015;48.106;-1.682;2023-04-01T11:39:11;16.30;77.80
25140;DHT22;39015;48.106;-1.682;2023-04-01T11:41:49;16.30;77.70
25140;DHT22;39015;48.106;-1.682;2023-04-01T11:44:18;16.40;77.70
25140;DHT22;39015;48.106;-1.682;2023-04-01T11:46:56;16.40;77.60
25140;DHT22;39015;48.106;-1.682;2023-04-01T11:49:41;16.40;77.50
25140;DHT22;39015;48.106;-1.682;2023-04-01T11:52:18;16.30;77.40
25140;DHT22;39015;48.106;-1.682;2023-04-01T11:54:56;16.30;77.50
25140;DHT22;39015;48.106;-1.682;2023-04-01T11:57:35;16.30;77.60
25140;DHT22;39015;48.106;-1.682;2023-04-01T12:00:19;16.30;77.70
25140;DHT22;39015;48.106;-1.682;2023-04-01T12:03:00;16.30;78.00
25140;DHT22;39015;48.106;-1.682;2023-04-01T12:05:38;16.30;78.00
25140;DHT22;39015;48.106;-1.682;2023-04-01T12:08:12;16.30;78.00
25140;DHT22;39015;48.106;-1.682;2023-04-01T12:10:46;16.40;78.00
25140;DHT22;39015;48.106;-1.682;2023-04-01T12:13:24;16.40;77.90
25140;DHT22;39015;48.106;-1.682;2023-04-01T12:18:52;16.40;78.00
25140;DHT22;39015;48.106;-1.682;2023-04-01T12:21:25;16.40;78.10
25140;DHT22;39015;48.106;-1.682;2023-04-01T12:26:52;16.30;78.10
25140;DHT22;39015;48.106;-1.682;2023-04-01T12:29:37;16.30;78.40
25140;DHT22;39015;48.106;-1.682;2023-04-01T12:32:14;16.30;78.50
25140;DHT22;39015;48.106;-1.682;2023-04-01T12:34:56;16.30;78.70
25140;DHT22;39015;48.106;-1.682;2023-04-01T12:37:28;16.30;78.70
25140;DHT22;39015;48.106;-1.682;2023-04-01T12:42:48;16.30;78.60
25140;DHT22;39015;48.106;-1.682;2023-04-01T12:45:28;16.30;78.70
25140;DHT22;39015;48.106;-1.682;2023-04-01T12:48:05;16.40;78.70
25140;DHT22;39015;48.106;-1.682;2023-04-01T12:50:41;16.40;78.70
25140;DHT22;39015;48.106;-1.682;2023-04-01T12:53:17;16.40;78.70
25140;DHT22;39015;48.106;-1.682;2023-04-01T12:55:49;16.40;78.50
25140;DHT22;39015;48.106;-1.682;2023-04-01T12:58:30;16.50;78.60
25140;DHT22;39015;48.106;-1.682;2023-04-01T13:03:52;16.50;78.60
25140;DHT22;39015;48.106;-1.682;2023-04-01T13:06:27;16.50;78.60
25140;DHT22;39015;48.106;-1.682;2023-04-01T13:09:00;16.50;78.60
25140;DHT22;39015;48.106;-1.682;2023-04-01T13:11:33;16.50;78.60
25140;DHT22;39015;48.106;-1.682;2023-04-01T13:14:17;16.50;78.60
25140;DHT22;39015;48.106;-1.682;2023-04-01T13:16:46;16.40;78.50
25140;DHT22;39015;48.106;-1.682;2023-04-01T13:19:19;16.40;78.60
25140;DHT22;39015;48.106;-1.682;2023-04-01T13:21:51;16.40;78.70
25140;DHT22;39015;48.106;-1.682;2023-04-01T13:24:30;16.40;78.70
25140;DHT22;39015;48.106;-1.682;2023-04-01T13:26:59;16.40;79.60
25140;DHT22;39015;48.106;-1.682;2023-04-01T13:29:30;16.40;78.70
25140;DHT22;39015;48.106;-1.682;2023-04-01T13:32:05;16.30;78.80
25140;DHT22;39015;48.106;-1.682;2023-04-01T13:34:40;16.30;78.90
25140;DHT22;39015;48.106;-1.682;2023-04-01T13:37:20;16.30;78.90
25140;DHT22;39015;48.106;-1.682;2023-04-01T13:39:56;16.20;79.00
25140;DHT22;39015;48.106;-1.682;2023-04-01T13:42:25;16.20;79.00
25140;DHT22;39015;48.106;-1.682;2023-04-01T13:44:54;16.20;79.00
25140;DHT22;39015;48.106;-1.682;2023-04-01T13:47:32;16.20;79.00
25140;DHT22;39015;48.106;-1.682;2023-04-01T13:50:17;16.20;79.00
25140;DHT22;39015;48.106;-1.682;2023-04-01T13:55:31;16.20;79.10
25140;DHT22;39015;48.106;-1.682;2023-04-01T13:58:04;16.20;79.20
25140;DHT22;39015;48.106;-1.682;2023-04-01T14:00:42;16.20;79.10
25140;DHT22;39015;48.106;-1.682;2023-04-01T14:03:36;16.30;80.00
25140;DHT22;39015;48.106;-1.682;2023-04-01T14:06:13;16.30;79.10
25140;DHT22;39015;48.106;-1.682;2023-04-01T14:08:50;16.30;79.10
25140;DHT22;39015;48.106;-1.682;2023-04-01T14:11:22;16.30;78.90
25140;DHT22;39015;48.106;-1.682;2023-04-01T14:13:53;16.40;79.00
25140;DHT22;39015;48.106;-1.682;2023-04-01T14:16:27;16.30;78.90
25140;DHT22;39015;48.106;-1.682;2023-04-01T14:19:03;16.40;79.00
25140;DHT22;39015;48.106;-1.682;2023-04-01T14:21:35;16.30;78.90
25140;DHT22;39015;48.106;-1.682;2023-04-01T14:27:03;16.30;79.00
25140;DHT22;39015;48.106;-1.682;2023-04-01T14:29:36;16.30;79.00
25140;DHT22;39015;48.106;-1.682;2023-04-01T14:32:07;16.30;79.10
25140;DHT22;39015;48.106;-1.682;2023-04-01T14:34:38;16.30;79.80
25140;DHT22;39015;48.106;-1.682;2023-04-01T14:37:13;16.40;80.00
25140;DHT22;39015;48.106;-1.682;2023-04-01T14:39:52;16.40;79.60
25140;DHT22;39015;48.106;-1.682;2023-04-01T14:42:35;16.40;79.30
25140;DHT22;39015;48.106;-1.682;2023-04-01T14:47:56;16.20;79.30
25140;DHT22;39015;48.106;-1.682;2023-04-01T14:50:27;16.10;79.30
25140;DHT22;39015;48.106;-1.682;2023-04-01T14:52:58;16.10;79.00
25140;DHT22;39015;48.106;-1.682;2023-04-01T14:55:28;16.10;78.80
25140;DHT22;39015;48.106;-1.682;2023-04-01T14:57:59;16.00;78.50
25140;DHT22;39015;48.106;-1.682;2023-04-01T15:00:26;16.00;77.40
25140;DHT22;39015;48.106;-1.682;2023-04-01T15:02:57;15.90;77.40
25140;DHT22;39015;48.106;-1.682;2023-04-01T15:05:32;15.80;76.70
25140;DHT22;39015;48.106;-1.682;2023-04-01T15:08:05;15.80;77.20
25140;DHT22;39015;48.106;-1.682;2023-04-01T15:13:20;15.80;77.50
25140;DHT22;39015;48.106;-1.682;2023-04-01T15:15:58;15.90;77.50
25140;DHT22;39015;48.106;-1.682;2023-04-01T15:18:27;15.90;77.40
25140;DHT22;39015;48.106;-1.682;2023-04-01T15:21:07;16.00;78.30
25140;DHT22;39015;48.106;-1.682;2023-04-01T15:23:42;16.00;77.40
25140;DHT22;39015;48.106;-1.682;2023-04-01T15:26:13;16.00;77.40
25140;DHT22;39015;48.106;-1.682;2023-04-01T15:28:49;16.10;77.50
25140;DHT22;39015;48.106;-1.682;2023-04-01T15:31:20;16.10;77.50
25140;DHT22;39015;48.106;-1.682;2023-04-01T15:34:03;16.10;77.50
25140;DHT22;39015;48.106;-1.682;2023-04-01T15:36:34;16.10;77.50
25140;DHT22;39015;48.106;-1.682;2023-04-01T15:39:05;16.10;77.50
25140;DHT22;39015;48.106;-1.682;2023-04-01T15:41:36;16.10;77.50
25140;DHT22;39015;48.106;-1.682;2023-04-01T15:44:24;16.20;77.40
25140;DHT22;39015;48.106;-1.682;2023-04-01T15:46:57;16.20;77.20
25140;DHT22;39015;48.106;-1.682;2023-04-01T15:49:30;16.20;77.30
25140;DHT22;39015;48.106;-1.682;2023-04-01T15:52:07;16.20;77.20
25140;DHT22;39015;48.106;-1.682;2023-04-01T15:57:34;16.20;77.20
25140;DHT22;39015;48.106;-1.682;2023-04-01T16:00:13;16.20;77.20
25140;DHT22;39015;48.106;-1.682;2023-04-01T16:02:49;16.20;77.20
25140;DHT22;39015;48.106;-1.682;2023-04-01T16:05:25;16.20;77.20
25140;DHT22;39015;48.106;-1.682;2023-04-01T16:07:55;16.20;77.20
25140;DHT22;39015;48.106;-1.682;2023-04-01T16:10:34;16.20;77.20
25140;DHT22;39015;48.106;-1.682;2023-04-01T16:13:14;16.20;77.20
25140;DHT22;39015;48.106;-1.682;2023-04-01T16:15:52;16.30;77.30
25140;DHT22;39015;48.106;-1.682;2023-04-01T16:21:21;16.30;77.30
25140;DHT22;39015;48.106;-1.682;2023-04-01T16:23:56;16.30;77.30
25140;DHT22;39015;48.106;-1.682;2023-04-01T16:26:28;16.30;77.30
25140;DHT22;39015;48.106;-1.682;2023-04-01T16:29:03;16.30;77.40
25140;DHT22;39015;48.106;-1.682;2023-04-01T16:31:38;16.30;77.30
25140;DHT22;39015;48.106;-1.682;2023-04-01T16:34:10;16.20;77.30
25140;DHT22;39015;48.106;-1.682;2023-04-01T16:36:41;16.20;77.30
25140;DHT22;39015;48.106;-1.682;2023-04-01T16:39:22;16.30;77.30
25140;DHT22;39015;48.106;-1.682;2023-04-01T16:41:55;16.30;77.30
25140;DHT22;39015;48.106;-1.682;2023-04-01T16:44:25;16.20;77.20
25140;DHT22;39015;48.106;-1.682;2023-04-01T16:46:54;16.20;77.20
25140;DHT22;39015;48.106;-1.682;2023-04-01T16:49:24;16.30;77.30
25140;DHT22;39015;48.106;-1.682;2023-04-01T16:51:53;16.30;77.30
25140;DHT22;39015;48.106;-1.682;2023-04-01T16:54:27;16.40;77.40
25140;DHT22;39015;48.106;-1.682;2023-04-01T16:56:55;16.40;77.20
25140;DHT22;39015;48.106;-1.682;2023-04-01T16:59:24;16.40;77.20
25140;DHT22;39015;48.106;-1.682;2023-04-01T17:01:54;16.40;77.00
25140;DHT22;39015;48.106;-1.682;2023-04-01T17:04:26;16.40;77.00
25140;DHT22;39015;48.106;-1.682;2023-04-01T17:06:57;16.40;77.80
25140;DHT22;39015;48.106;-1.682;2023-04-01T17:09:34;16.40;76.90
25140;DHT22;39015;48.106;-1.682;2023-04-01T17:12:09;16.40;77.00
25140;DHT22;39015;48.106;-1.682;2023-04-01T17:14:43;16.40;77.00
25140;DHT22;39015;48.106;-1.682;2023-04-01T17:17:22;16.40;77.80
25140;DHT22;39015;48.106;-1.682;2023-04-01T17:22:38;16.40;77.00
25140;DHT22;39015;48.106;-1.682;2023-04-01T17:25:12;16.40;77.00
25140;DHT22;39015;48.106;-1.682;2023-04-01T17:27:42;16.30;77.00
25140;DHT22;39015;48.106;-1.682;2023-04-01T17:30:17;16.30;77.00
25140;DHT22;39015;48.106;-1.682;2023-04-01T17:32:56;16.30;77.10
25140;DHT22;39015;48.106;-1.682;2023-04-01T17:35:26;16.30;77.00
25140;DHT22;39015;48.106;-1.682;2023-04-01T17:37:59;16.30;77.10
25140;DHT22;39015;48.106;-1.682;2023-04-01T17:40:32;16.30;77.10
25140;DHT22;39015;48.106;-1.682;2023-04-01T17:43:05;16.30;77.20
25140;DHT22;39015;48.106;-1.682;2023-04-01T17:45:37;16.30;77.10
25140;DHT22;39015;48.106;-1.682;2023-04-01T17:48:14;16.30;77.10
25140;DHT22;39015;48.106;-1.682;2023-04-01T17:50:49;16.30;77.20
25140;DHT22;39015;48.106;-1.682;2023-04-01T17:53:22;16.30;77.20
25140;DHT22;39015;48.106;-1.682;2023-04-01T17:58:35;16.30;77.20
25140;DHT22;39015;48.106;-1.682;2023-04-01T18:01:15;16.30;77.10
25140;DHT22;39015;48.106;-1.682;2023-04-01T18:03:55;16.30;77.20
25140;DHT22;39015;48.106;-1.682;2023-04-01T18:06:34;16.30;77.30
25140;DHT22;39015;48.106;-1.682;2023-04-01T18:09:12;16.30;77.20
25140;DHT22;39015;48.106;-1.682;2023-04-01T18:11:48;16.30;77.20
25140;DHT22;39015;48.106;-1.682;2023-04-01T18:14:40;16.30;77.20
25140;DHT22;39015;48.106;-1.682;2023-04-01T18:17:13;16.30;77.10
25140;DHT22;39015;48.106;-1.682;2023-04-01T18:19:56;16.30;77.10
25140;DHT22;39015;48.106;-1.682;2023-04-01T18:22:36;16.30;77.10
25140;DHT22;39015;48.106;-1.682;2023-04-01T18:25:14;16.30;77.10
25140;DHT22;39015;48.106;-1.682;2023-04-01T18:27:47;16.30;77.10
25140;DHT22;39015;48.106;-1.682;2023-04-01T18:30:22;16.30;77.10
25140;DHT22;39015;48.106;-1.682;2023-04-01T18:32:57;16.30;77.00
25140;DHT22;39015;48.106;-1.682;2023-04-01T18:35:45;16.30;77.00
25140;DHT22;39015;48.106;-1.682;2023-04-01T18:38:14;16.20;76.90
25140;DHT22;39015;48.106;-1.682;2023-04-01T18:40:47;16.30;77.00
25140;DHT22;39015;48.106;-1.682;2023-04-01T18:43:18;16.20;76.90
25140;DHT22;39015;48.106;-1.682;2023-04-01T18:45:49;16.20;76.80
25140;DHT22;39015;48.106;-1.682;2023-04-01T18:48:30;16.20;77.20
25140;DHT22;39015;48.106;-1.682;2023-04-01T18:51:08;16.20;76.80
25140;DHT22;39015;48.106;-1.682;2023-04-01T18:53:38;16.20;76.70
25140;DHT22;39015;48.106;-1.682;2023-04-01T18:56:07;16.20;76.80
25140;DHT22;39015;48.106;-1.682;2023-04-01T18:58:37;16.20;76.70
25140;DHT22;39015;48.106;-1.682;2023-04-01T19:01:15;16.20;76.60
25140;DHT22;39015;48.106;-1.682;2023-04-01T19:03:45;16.20;76.60
25140;DHT22;39015;48.106;-1.682;2023-04-01T19:06:17;16.20;76.60
25140;DHT22;39015;48.106;-1.682;2023-04-01T19:08:45;16.20;76.70
25140;DHT22;39015;48.106;-1.682;2023-04-01T19:11:15;16.20;76.60
25140;DHT22;39015;48.106;-1.682;2023-04-01T19:13:46;16.20;76.60
25140;DHT22;39015;48.106;-1.682;2023-04-01T19:16:21;16.20;76.70
25140;DHT22;39015;48.106;-1.682;2023-04-01T19:18:58;16.20;76.60
25140;DHT22;39015;48.106;-1.682;2023-04-01T19:21:32;16.20;76.60
25140;DHT22;39015;48.106;-1.682;2023-04-01T19:24:12;16.20;76.60
25140;DHT22;39015;48.106;-1.682;2023-04-01T19:26:42;16.20;76.60
25140;DHT22;39015;48.106;-1.682;2023-04-01T19:29:17;16.20;76.60
25140;DHT22;39015;48.106;-1.682;2023-04-01T19:31:51;16.20;76.60
25140;DHT22;39015;48.106;-1.682;2023-04-01T19:34:22;16.20;76.60
25140;DHT22;39015;48.106;-1.682;2023-04-01T19:36:54;16.20;76.60
25140;DHT22;39015;48.106;-1.682;2023-04-01T19:39:36;16.20;76.70
25140;DHT22;39015;48.106;-1.682;2023-04-01T19:42:05;16.20;76.70
25140;DHT22;39015;48.106;-1.682;2023-04-01T19:44:39;16.20;76.70
25140;DHT22;39015;48.106;-1.682;2023-04-01T19:47:11;16.20;76.70
25140;DHT22;39015;48.106;-1.682;2023-04-01T19:49:42;16.20;76.70
25140;DHT22;39015;48.106;-1.682;2023-04-01T19:52:17;16.20;76.70
25140;DHT22;39015;48.106;-1.682;2023-04-01T19:54:49;16.20;76.70
25140;DHT22;39015;48.106;-1.682;2023-04-01T19:57:23;16.20;76.80
25140;DHT22;39015;48.106;-1.682;2023-04-01T19:59:55;16.10;76.70
25140;DHT22;39015;48.106;-1.682;2023-04-01T20:02:31;16.20;76.80
25140;DHT22;39015;48.106;-1.682;2023-04-01T20:05:00;16.10;76.70
25140;DHT22;39015;48.106;-1.682;2023-04-01T20:07:33;16.10;76.70
25140;DHT22;39015;48.106;-1.682;2023-04-01T20:10:03;16.10;76.70
25140;DHT22;39015;48.106;-1.682;2023-04-01T20:12:36;16.10;76.80
25140;DHT22;39015;48.106;-1.682;2023-04-01T20:15:19;16.10;76.80
25140;DHT22;39015;48.106;-1.682;2023-04-01T20:17:47;16.10;76.90
25140;DHT22;39015;48.106;-1.682;2023-04-01T20:20:18;16.10;76.90
25140;DHT22;39015;48.106;-1.682;2023-04-01T20:22:59;16.10;76.90
25140;DHT22;39015;48.106;-1.682;2023-04-01T20:25:30;16.10;77.00
25140;DHT22;39015;48.106;-1.682;2023-04-01T20:27:58;16.10;77.00
25140;DHT22;39015;48.106;-1.682;2023-04-01T20:30:34;16.10;77.00
25140;DHT22;39015;48.106;-1.682;2023-04-01T20:33:10;16.10;77.00
25140;DHT22;39015;48.106;-1.682;2023-04-01T20:35:46;16.10;76.90
25140;DHT22;39015;48.106;-1.682;2023-04-01T20:38:32;16.10;77.00
25140;DHT22;39015;48.106;-1.682;2023-04-01T20:41:06;16.10;77.00
25140;DHT22;39015;48.106;-1.682;2023-04-01T20:43:48;16.10;77.00
25140;DHT22;39015;48.106;-1.682;2023-04-01T20:46:24;16.10;77.00
25140;DHT22;39015;48.106;-1.682;2023-04-01T20:48:59;16.10;77.10
25140;DHT22;39015;48.106;-1.682;2023-04-01T20:51:32;16.10;77.10
25140;DHT22;39015;48.106;-1.682;2023-04-01T20:54:05;16.10;77.10
25140;DHT22;39015;48.106;-1.682;2023-04-01T20:56:40;16.10;77.10
25140;DHT22;39015;48.106;-1.682;2023-04-01T20:59:16;16.10;77.10
25140;DHT22;39015;48.106;-1.682;2023-04-01T21:01:51;16.10;77.20
25140;DHT22;39015;48.106;-1.682;2023-04-01T21:04:26;16.10;77.20
25140;DHT22;39015;48.106;-1.682;2023-04-01T21:06:58;16.10;77.20
25140;DHT22;39015;48.106;-1.682;2023-04-01T21:09:43;16.10;77.20
25140;DHT22;39015;48.106;-1.682;2023-04-01T21:12:17;16.10;77.30
25140;DHT22;39015;48.106;-1.682;2023-04-01T21:14:49;16.10;77.30
25140;DHT22;39015;48.106;-1.682;2023-04-01T21:17:22;16.10;77.30
25140;DHT22;39015;48.106;-1.682;2023-04-01T21:19:57;16.10;77.30
